Time;durP1;ratioP1;P1;durP2;ratioP2;P2;SDS_P1;SDS_P2;PMS_P1;PMS_P2;Temp;Humidity;BMP_temperature;BMP_pressure;BME280_temperature;BME280_humidity;BME280_pressure;Samples;Min_cycle;Max_cycle;Signal;HPM_P1;HPM_P2
2022/10/31 00:00:32;;;;;;;4.70;2.20;;;15.80;68.20;;;;;;2286101;55;20930;-72
2022/10/31 00:02:59;;;;;;;5.40;1.98;;;15.80;68.30;;;;;;2471843;54;20942;-72
2022/10/31 00:05:25;;;;;;;5.75;2.10;;;15.80;68.20;;;;;;2287607;55;20963;-71
2022/10/31 00:07:52;;;;;;;4.87;2.20;;;15.80;69.00;;;;;;2379074;54;20930;-72
2022/10/31 00:10:19;;;;;;;4.82;2.30;;;15.80;68.40;;;;;;2304416;55;20937;-71
2022/10/31 00:12:45;;;;;;;2.87;1.62;;;15.80;68.50;;;;;;2517083;54;20979;-72
2022/10/31 00:15:12;;;;;;;4.72;2.12;;;15.70;69.20;;;;;;2286719;55;20973;-71
2022/10/31 00:17:41;;;;;;;3.90;1.75;;;15.70;68.50;;;;;;2335202;54;21513;-72
2022/10/31 00:20:09;;;;;;;5.70;2.25;;;15.80;68.60;;;;;;2287526;55;20927;-72
2022/10/31 00:22:35;;;;;;;4.85;1.60;;;15.70;68.50;;;;;;2540785;54;20941;-72
2022/10/31 00:25:03;;;;;;;7.07;2.12;;;15.70;68.50;;;;;;2287369;55;20934;-71
2022/10/31 00:27:29;;;;;;;5.72;2.22;;;15.70;68.60;;;;;;2287721;55;21904;-72
2022/10/31 00:29:55;;;;;;;4.37;1.83;;;15.80;68.70;;;;;;2287194;55;21426;-72
2022/10/31 00:32:22;;;;;;;5.53;2.33;;;15.70;68.70;;;;;;2287481;55;21451;-72
2022/10/31 00:34:48;;;;;;;4.72;2.12;;;15.70;68.70;;;;;;2287096;55;21936;-71
2022/10/31 00:37:17;;;;;;;4.65;2.10;;;15.70;68.80;;;;;;2521053;54;20971;-71
2022/10/31 00:39:48;;;;;;;5.28;2.37;;;15.80;68.90;;;;;;2520949;54;21396;-71
2022/10/31 00:42:15;;;;;;;4.45;1.87;;;15.70;68.90;;;;;;2521316;54;20911;-72
2022/10/31 00:44:41;;;;;;;4.07;2.00;;;15.70;69.60;;;;;;2287146;55;20974;-71
2022/10/31 00:47:08;;;;;;;4.85;2.10;;;15.70;69.60;;;;;;2520727;54;21027;-72
2022/10/31 00:49:34;;;;;;;6.07;1.73;;;15.70;68.90;;;;;;2287111;55;20919;-71
2022/10/31 00:52:01;;;;;;;4.95;2.00;;;15.70;68.90;;;;;;2287244;55;21160;-71
2022/10/31 00:54:30;;;;;;;4.22;2.10;;;15.70;69.00;;;;;;2287500;55;21006;-72
2022/10/31 00:56:57;;;;;;;4.35;1.95;;;15.70;68.90;;;;;;2521812;54;21035;-71
2022/10/31 00:59:23;;;;;;;4.55;1.50;;;15.80;69.10;;;;;;2287633;55;21026;-72
2022/10/31 01:01:51;;;;;;;3.90;1.67;;;15.80;69.00;;;;;;2286651;55;20946;-72
2022/10/31 01:04:17;;;;;;;3.35;1.60;;;15.70;68.90;;;;;;2287100;54;20967;-71
2022/10/31 01:06:44;;;;;;;6.05;1.87;;;15.70;68.90;;;;;;2287642;55;21006;-71
2022/10/31 01:09:10;;;;;;;4.80;2.20;;;15.80;68.90;;;;;;2286788;55;20938;-72
2022/10/31 01:11:38;;;;;;;3.37;1.42;;;15.70;68.80;;;;;;2286759;55;20923;-71
2022/10/31 01:14:04;;;;;;;4.47;1.73;;;15.70;68.90;;;;;;2287701;55;21376;-70
2022/10/31 01:16:30;;;;;;;3.67;1.73;;;15.70;68.80;;;;;;2521276;54;21720;-71
2022/10/31 01:18:57;;;;;;;3.37;1.50;;;15.80;68.90;;;;;;2306921;54;21022;-71
2022/10/31 01:21:25;;;;;;;4.25;1.62;;;15.80;68.90;;;;;;2295778;54;21124;-71
2022/10/31 01:23:55;;;;;;;3.17;1.58;;;15.70;68.80;;;;;;2286820;55;20991;-71
2022/10/31 01:26:24;;;;;;;5.07;1.98;;;15.70;68.80;;;;;;2521440;54;20935;-72
2022/10/31 01:29:06;;;;;;;4.43;1.65;;;15.70;68.90;;;;;;2287434;55;20966;-72
2022/10/31 01:31:33;;;;;;;;;;;15.70;68.90;;;;;;2519680;55;21067;-71
2022/10/31 01:34:00;;;;;;;3.55;1.60;;;15.80;68.40;;;;;;2256741;56;20048;-70
2022/10/31 01:36:35;;;;;;;4.07;1.70;;;15.70;68.80;;;;;;2520355;54;20973;-71
2022/10/31 01:39:38;;;;;;;3.50;1.60;;;15.70;68.60;;;;;;2279277;54;2219578;-71
2022/10/31 01:42:04;;;;;;;3.45;1.37;;;15.70;68.30;;;;;;2281364;54;20995;-73
2022/10/31 01:44:57;;;;;;;5.07;1.80;;;15.70;68.90;;;;;;2276183;56;20974;-71
2022/10/31 01:47:46;;;;;;;3.40;1.40;;;15.70;68.50;;;;;;2506353;54;21053;-72
2022/10/31 01:50:15;;;;;;;2.70;1.20;;;15.70;68.50;;;;;;2297219;55;20953;-69
2022/10/31 01:52:45;;;;;;;2.78;1.27;;;15.70;68.90;;;;;;2306253;55;21025;-74
2022/10/31 01:55:24;;;;;;;4.25;1.60;;;15.70;68.80;;;;;;2509020;54;21024;-72
2022/10/31 01:57:51;;;;;;;4.37;1.60;;;15.60;68.70;;;;;;2342483;54;21083;-71
2022/10/31 02:00:18;;;;;;;3.67;1.45;;;15.60;68.70;;;;;;2271077;55;20998;-71
2022/10/31 02:02:46;;;;;;;3.78;1.40;;;15.60;68.70;;;;;;2519250;54;20943;-72
2022/10/31 02:05:14;;;;;;;3.97;1.73;;;15.60;68.70;;;;;;2521617;54;22050;-72
2022/10/31 02:09:14;;;;;;;5.82;1.87;;;15.50;68.60;;;;;;2398431;54;20986;-72
2022/10/31 02:11:41;;;;;;;3.62;1.40;;;15.60;68.10;;;;;;2285792;55;20999;-73
2022/10/31 02:14:07;;;;;;;3.75;1.77;;;15.50;68.70;;;;;;2286844;55;20939;-71
2022/10/31 02:16:33;;;;;;;3.15;1.60;;;15.50;68.70;;;;;;2287250;55;21007;-70
2022/10/31 02:18:59;;;;;;;4.40;1.60;;;15.50;68.80;;;;;;2287451;55;21002;-72
2022/10/31 02:21:50;;;;;;;3.28;1.75;;;15.50;68.80;;;;;;2287263;55;21420;-71
2022/10/31 02:26:09;;;;;;;4.62;2.08;;;15.50;68.50;;;;;;2521232;54;20976;-70
2022/10/31 02:30:16;;;;;;;3.45;1.52;;;15.50;68.20;;;;;;2287011;55;20937;-69
2022/10/31 02:33:05;;;;;;;2.72;1.27;;;15.50;68.10;;;;;;2288334;55;20991;-70
2022/10/31 02:35:42;;;;;;;3.62;1.50;;;15.40;68.20;;;;;;2287399;55;20926;-73
2022/10/31 02:38:30;;;;;;;3.55;1.62;;;15.40;68.50;;;;;;2304709;54;21072;-71
2022/10/31 02:41:33;;;;;;;5.03;1.70;;;15.40;68.50;;;;;;2287951;55;20962;-71
2022/10/31 02:44:11;;;;;;;2.85;1.17;;;15.40;68.40;;;;;;2517736;54;20966;-70
2022/10/31 02:46:59;;;;;;;4.53;1.60;;;15.30;68.60;;;;;;2294890;54;21802;-68
2022/10/31 02:49:46;;;;;;;4.07;1.62;;;15.30;68.40;;;;;;2288142;55;21015;-74
2022/10/31 02:52:35;;;;;;;4.60;1.62;;;15.30;68.50;;;;;;2308765;54;21028;-70
2022/10/31 02:57:38;;;;;;;4.10;1.40;;;15.30;68.40;;;;;;2303037;55;20974;-70
2022/10/31 03:00:07;;;;;;;2.67;1.30;;;15.30;68.10;;;;;;2516903;54;21018;-70
2022/10/31 03:08:00;;;;;;;3.28;1.33;;;15.20;68.60;;;;;;2286777;55;21456;-71
2022/10/31 03:11:09;;;;;;;2.37;1.05;;;15.20;68.00;;;;;;2288025;55;21188;-69
2022/10/31 03:13:52;;;;;;;4.07;1.37;;;15.20;67.90;;;;;;2286560;55;20934;-72
2022/10/31 03:16:34;;;;;;;4.45;1.30;;;15.20;68.70;;;;;;2533983;53;20973;-74
2022/10/31 03:20:01;;;;;;;;;;;15.10;68.30;;;;;;2305908;54;21014;-71
2022/10/31 03:22:29;;;;;;;2.83;1.20;;;15.10;68.60;;;;;;2521861;54;20542;-71
2022/10/31 03:24:55;;;;;;;3.10;1.50;;;15.10;68.50;;;;;;2286990;55;20976;-74
2022/10/31 03:27:24;;;;;;;4.12;1.40;;;15.00;68.40;;;;;;2525682;53;20997;-72
2022/10/31 03:29:51;;;;;;;3.97;1.50;;;15.00;68.50;;;;;;2292821;55;20982;-70
2022/10/31 03:32:29;;;;;;;3.12;1.37;;;15.00;68.50;;;;;;2286987;55;20998;-71
2022/10/31 03:34:56;;;;;;;3.03;1.50;;;14.90;68.50;;;;;;2277823;55;20961;-74
2022/10/31 03:37:22;;;;;;;6.85;1.65;;;14.90;68.50;;;;;;2286878;55;20998;-71
2022/10/31 03:39:49;;;;;;;4.20;1.70;;;14.90;68.70;;;;;;2287296;55;20902;-72
2022/10/31 03:42:17;;;;;;;4.30;1.70;;;14.90;68.90;;;;;;2286644;55;20958;-73
2022/10/31 03:44:46;;;;;;;4.65;1.92;;;14.80;68.70;;;;;;2299160;55;20985;-74
2022/10/31 03:47:14;;;;;;;3.25;1.50;;;14.90;68.80;;;;;;2292587;55;20991;-75
2022/10/31 03:49:40;;;;;;;3.95;1.50;;;14.80;68.70;;;;;;2286745;55;21883;-70
2022/10/31 03:52:26;;;;;;;3.83;1.40;;;14.80;68.70;;;;;;2433660;54;21042;-72
2022/10/31 03:54:56;;;;;;;3.95;1.77;;;14.80;68.40;;;;;;2296065;55;20900;-74
2022/10/31 03:57:40;;;;;;;3.87;1.60;;;14.80;68.80;;;;;;2301612;55;20922;-75
2022/10/31 04:00:09;;;;;;;3.03;1.40;;;14.80;68.50;;;;;;2307065;55;20981;-73
2022/10/31 04:02:41;;;;;;;3.53;1.42;;;14.80;68.70;;;;;;2262562;56;21063;-73
2022/10/31 04:05:07;;;;;;;3.53;1.48;;;14.80;68.70;;;;;;2281634;55;21085;-71
2022/10/31 04:07:40;;;;;;;8.40;1.83;;;14.70;68.50;;;;;;2514752;54;20991;-71
2022/10/31 04:10:09;;;;;;;4.97;2.12;;;14.70;68.60;;;;;;2281058;55;20980;-69
2022/10/31 04:12:37;;;;;;;5.00;1.90;;;14.70;68.90;;;;;;2310020;55;21021;-73
2022/10/31 04:15:08;;;;;;;4.12;1.98;;;14.70;68.90;;;;;;2293714;55;20993;-70
2022/10/31 04:17:36;;;;;;;3.45;1.60;;;14.70;68.90;;;;;;2522304;54;20951;-73
2022/10/31 04:20:05;;;;;;;2.97;1.33;;;14.60;68.70;;;;;;2281713;54;20943;-76
2022/10/31 04:22:31;;;;;;;3.22;1.35;;;14.60;68.70;;;;;;2516308;54;20987;-72
2022/10/31 04:24:58;;;;;;;3.50;1.67;;;14.70;68.90;;;;;;2521444;54;20965;-74
2022/10/31 04:27:24;;;;;;;4.60;1.95;;;14.60;68.80;;;;;;2282449;55;21082;-72
2022/10/31 04:29:51;;;;;;;8.63;2.25;;;14.60;68.90;;;;;;2303114;55;20988;-73
2022/10/31 04:32:17;;;;;;;4.07;1.55;;;14.60;68.90;;;;;;2521867;54;20991;-74
2022/10/31 04:34:44;;;;;;;4.32;1.60;;;14.60;68.90;;;;;;2294662;54;20963;-74
2022/10/31 04:37:11;;;;;;;3.75;1.60;;;14.60;68.80;;;;;;2540209;54;20931;-73
2022/10/31 04:39:48;;;;;;;4.45;1.62;;;14.60;68.80;;;;;;2287473;55;20930;-72
2022/10/31 04:42:14;;;;;;;3.60;1.65;;;14.60;68.70;;;;;;2289801;55;21571;-74
2022/10/31 04:44:40;;;;;;;2.85;1.20;;;14.60;68.90;;;;;;2287271;55;21070;-70
2022/10/31 04:47:10;;;;;;;3.95;1.90;;;14.60;68.90;;;;;;2532595;54;21078;-73
2022/10/31 04:49:36;;;;;;;3.72;1.55;;;14.60;68.90;;;;;;2295365;54;21394;-75
2022/10/31 04:52:03;;;;;;;3.92;1.80;;;14.60;68.90;;;;;;2521725;54;20954;-73
2022/10/31 04:54:30;;;;;;;4.80;1.60;;;14.60;69.00;;;;;;2522191;54;21018;-73
2022/10/31 04:56:56;;;;;;;3.62;1.70;;;14.60;69.30;;;;;;2409054;54;20915;-72
2022/10/31 04:59:23;;;;;;;4.97;2.17;;;14.60;69.00;;;;;;2287329;55;20986;-73
2022/10/31 05:01:55;;;;;;;4.47;1.75;;;14.60;69.00;;;;;;2345977;54;20986;-76
2022/10/31 05:04:22;;;;;;;3.92;1.83;;;14.60;69.00;;;;;;2287315;55;20950;-77
2022/10/31 05:06:49;;;;;;;4.20;1.75;;;14.60;69.20;;;;;;2521759;54;20931;-73
2022/10/31 05:09:16;;;;;;;3.20;1.52;;;14.60;69.10;;;;;;2365937;54;20998;-75
2022/10/31 05:11:42;;;;;;;3.83;1.90;;;14.60;69.00;;;;;;2314483;54;20903;-72
2022/10/31 05:14:09;;;;;;;3.50;1.60;;;14.60;69.00;;;;;;2287332;55;20950;-74
2022/10/31 05:16:36;;;;;;;3.65;1.67;;;14.60;69.00;;;;;;2293127;54;20947;-71
2022/10/31 05:19:02;;;;;;;5.18;1.60;;;14.60;69.00;;;;;;2287764;55;20935;-73
2022/10/31 05:21:29;;;;;;;4.55;1.87;;;14.60;69.10;;;;;;2337761;54;21752;-73
2022/10/31 05:23:56;;;;;;;4.03;1.60;;;14.60;69.10;;;;;;2287155;55;21069;-75
2022/10/31 05:26:24;;;;;;;3.67;1.60;;;14.60;69.00;;;;;;2287530;55;20943;-74
2022/10/31 05:28:50;;;;;;;3.50;1.55;;;14.60;69.00;;;;;;2287066;55;20998;-76
2022/10/31 05:31:17;;;;;;;3.30;1.42;;;14.60;69.00;;;;;;2454707;54;20938;-76
2022/10/31 05:33:44;;;;;;;4.00;1.95;;;14.60;69.10;;;;;;2306792;55;21001;-75
2022/10/31 05:36:10;;;;;;;3.58;1.60;;;14.60;69.20;;;;;;2417574;54;20950;-75
2022/10/31 05:38:36;;;;;;;4.03;1.75;;;14.60;69.20;;;;;;2521895;54;20990;-71
2022/10/31 05:41:09;;;;;;;4.85;1.75;;;14.60;69.10;;;;;;2287382;55;20939;-76
2022/10/31 05:43:35;;;;;;;5.22;2.08;;;14.60;69.10;;;;;;2290030;55;21416;-76
2022/10/31 05:46:03;;;;;;;4.07;1.60;;;14.60;69.20;;;;;;2521664;54;20999;-73
2022/10/31 05:48:29;;;;;;;3.30;1.67;;;14.60;69.30;;;;;;2290100;54;21459;-73
2022/10/31 05:50:58;;;;;;;4.43;1.77;;;14.60;69.20;;;;;;2521112;54;21238;-74
2022/10/31 05:53:25;;;;;;;5.75;1.60;;;14.60;69.20;;;;;;2287782;55;20939;-70
2022/10/31 05:55:52;;;;;;;3.95;1.50;;;14.60;69.20;;;;;;2521883;54;21030;-72
2022/10/31 05:58:18;;;;;;;4.32;1.95;;;14.60;69.10;;;;;;2287638;55;20958;-73
2022/10/31 06:00:45;;;;;;;2.92;1.42;;;14.60;69.10;;;;;;2521775;54;21425;-69
2022/10/31 06:03:11;;;;;;;3.87;1.40;;;14.60;69.10;;;;;;2287814;55;20986;-72
2022/10/31 06:05:40;;;;;;;3.00;1.37;;;14.60;69.00;;;;;;2468831;54;21065;-73
2022/10/31 06:08:07;;;;;;;3.35;1.65;;;14.60;69.00;;;;;;2520767;54;21058;-72
2022/10/31 06:10:33;;;;;;;3.58;1.50;;;14.60;69.10;;;;;;2287550;55;21026;-72
2022/10/31 06:13:00;;;;;;;4.55;2.28;;;14.60;69.20;;;;;;2287718;55;21810;-74
2022/10/31 06:15:26;;;;;;;2.83;1.40;;;14.60;69.20;;;;;;2379319;54;20958;-73
2022/10/31 06:18:04;;;;;;;4.03;1.90;;;14.60;69.20;;;;;;2399063;54;20998;-75
2022/10/31 06:20:33;;;;;;;3.00;1.60;;;14.70;69.20;;;;;;2339724;54;21067;-75
2022/10/31 06:23:01;;;;;;;3.28;1.65;;;14.60;69.20;;;;;;2286766;55;20899;-73
2022/10/31 06:25:27;;;;;;;3.65;1.80;;;14.60;69.30;;;;;;2287551;55;21014;-75
2022/10/31 06:27:54;;;;;;;4.32;1.77;;;14.60;69.30;;;;;;2286686;54;21059;-75
2022/10/31 06:30:20;;;;;;;3.08;1.50;;;14.60;69.40;;;;;;2303085;54;20906;-74
2022/10/31 06:32:47;;;;;;;2.67;1.30;;;14.60;69.40;;;;;;2286439;55;20955;-74
2022/10/31 06:35:13;;;;;;;5.12;1.73;;;14.60;69.40;;;;;;2521081;54;20934;-74
2022/10/31 06:37:41;;;;;;;3.20;1.48;;;14.60;69.50;;;;;;2470778;54;21013;-72
2022/10/31 06:40:09;;;;;;;4.20;2.22;;;14.70;69.60;;;;;;2304955;54;20994;-73
2022/10/31 06:42:36;;;;;;;3.33;1.73;;;14.70;69.60;;;;;;2281727;54;21016;-73
2022/10/31 06:45:03;;;;;;;4.43;1.98;;;14.70;69.70;;;;;;2403583;54;20925;-71
2022/10/31 06:47:29;;;;;;;4.50;1.95;;;14.70;69.70;;;;;;2415134;55;21057;-71
2022/10/31 06:49:56;;;;;;;3.30;1.70;;;14.70;69.70;;;;;;2372994;54;20988;-74
2022/10/31 06:52:26;;;;;;;3.72;2.12;;;14.80;69.80;;;;;;2288960;55;20973;-74
2022/10/31 06:54:52;;;;;;;3.33;1.60;;;14.80;69.70;;;;;;2383276;54;21958;-73
2022/10/31 06:57:19;;;;;;;3.35;1.50;;;14.80;69.80;;;;;;2294399;55;20993;-73
2022/10/31 06:59:45;;;;;;;4.03;1.67;;;14.80;69.80;;;;;;2349713;55;21454;-73
2022/10/31 07:02:12;;;;;;;3.72;1.80;;;14.80;69.70;;;;;;2306911;55;20925;-73
2022/10/31 07:04:41;;;;;;;7.90;2.25;;;14.80;69.70;;;;;;2313990;54;21394;-73
2022/10/31 07:07:09;;;;;;;5.62;2.50;;;14.80;69.70;;;;;;2308726;55;20966;-73
2022/10/31 07:09:38;;;;;;;4.20;2.17;;;14.90;69.70;;;;;;2464960;54;21399;-73
2022/10/31 07:12:05;;;;;;;4.45;2.53;;;14.90;69.70;;;;;;2294750;55;21121;-71
2022/10/31 07:14:31;;;;;;;3.55;2.22;;;14.90;69.80;;;;;;2547297;54;21001;-73
2022/10/31 07:16:58;;;;;;;9.48;6.25;;;14.90;69.80;;;;;;2384450;54;21107;-73
2022/10/31 07:19:24;;;;;;;11.55;7.72;;;14.90;69.90;;;;;;2527811;54;21727;-71
2022/10/31 07:21:51;;;;;;;8.50;6.28;;;14.90;70.00;;;;;;2301877;55;20939;-73
2022/10/31 07:24:18;;;;;;;10.52;6.10;;;14.90;70.00;;;;;;2545454;54;21034;-71
2022/10/31 07:26:47;;;;;;;9.38;5.75;;;15.00;70.10;;;;;;2308125;55;21000;-71
2022/10/31 07:29:13;;;;;;;10.98;6.85;;;15.00;70.20;;;;;;2305777;55;21813;-71
2022/10/31 07:31:41;;;;;;;10.57;6.53;;;15.00;70.20;;;;;;2307975;56;20925;-71
2022/10/31 07:34:10;;;;;;;9.55;6.70;;;15.10;70.30;;;;;;2545931;54;21061;-70
2022/10/31 07:36:37;;;;;;;8.60;5.30;;;15.20;70.50;;;;;;2308861;55;20965;-71
2022/10/31 07:39:06;;;;;;;7.20;4.37;;;15.10;70.40;;;;;;2547338;54;20925;-70
2022/10/31 07:41:33;;;;;;;7.28;3.22;;;15.20;70.50;;;;;;2308990;55;21063;-71
2022/10/31 07:43:59;;;;;;;5.20;2.87;;;15.20;70.50;;;;;;2443440;54;20996;-74
2022/10/31 07:46:25;;;;;;;4.80;2.62;;;15.20;70.50;;;;;;2485040;53;21028;-74
2022/10/31 07:48:52;;;;;;;5.25;2.35;;;15.30;70.60;;;;;;2308617;56;20968;-75
2022/10/31 07:51:18;;;;;;;4.65;2.35;;;15.30;70.60;;;;;;2293243;55;20982;-74
2022/10/31 07:53:45;;;;;;;3.65;2.25;;;15.40;70.80;;;;;;2307192;55;20953;-74
2022/10/31 07:56:12;;;;;;;6.40;2.25;;;15.40;70.90;;;;;;2298001;55;20966;-74
2022/10/31 07:58:38;;;;;;;3.87;2.17;;;15.50;71.00;;;;;;2372233;55;20981;-74
2022/10/31 08:01:04;;;;;;;8.27;4.60;;;15.50;71.10;;;;;;2309327;56;21143;-75
2022/10/31 08:03:31;;;;;;;7.30;4.35;;;15.50;71.10;;;;;;2546258;54;20930;-75
2022/10/31 08:05:57;;;;;;;10.70;6.47;;;15.60;71.20;;;;;;2308924;56;20981;-72
2022/10/31 08:08:27;;;;;;;13.45;7.43;;;15.60;71.20;;;;;;2297057;55;21006;-73
2022/10/31 08:10:54;;;;;;;12.60;7.57;;;15.70;71.40;;;;;;2352476;55;20941;-72
2022/10/31 08:13:21;;;;;;;10.82;6.72;;;15.80;71.50;;;;;;2324520;54;21355;-73
2022/10/31 08:15:50;;;;;;;10.25;6.40;;;15.80;71.60;;;;;;2310042;55;20973;-74
2022/10/31 08:18:17;;;;;;;7.65;4.20;;;15.90;71.70;;;;;;2370466;54;21017;-75
2022/10/31 08:20:43;;;;;;;6.78;3.65;;;16.00;71.80;;;;;;2305026;55;20990;-75
2022/10/31 08:23:11;;;;;;;6.28;3.40;;;16.00;71.70;;;;;;2530543;54;20937;-72
2022/10/31 08:25:38;;;;;;;5.62;3.15;;;16.10;71.80;;;;;;2310218;56;20929;-74
2022/10/31 08:28:07;;;;;;;7.05;3.10;;;16.10;71.80;;;;;;2313459;55;21567;-73
2022/10/31 08:30:35;;;;;;;6.30;3.10;;;16.20;71.90;;;;;;2552477;54;20973;-73
2022/10/31 08:33:12;;;;;;;5.75;3.50;;;16.30;71.90;;;;;;2549211;54;21213;-74
2022/10/31 08:35:42;;;;;;;7.12;2.75;;;16.30;71.70;;;;;;2545077;53;21011;-75
2022/10/31 08:38:11;;;;;;;5.68;2.60;;;16.40;71.90;;;;;;2298016;55;20980;-73
2022/10/31 08:40:37;;;;;;;4.65;2.67;;;16.50;71.90;;;;;;2306392;55;20949;-74
2022/10/31 08:43:13;;;;;;;5.87;2.95;;;16.50;71.80;;;;;;2458098;54;21810;-74
2022/10/31 08:45:39;;;;;;;4.80;2.30;;;16.60;71.90;;;;;;2308725;56;21446;-75
2022/10/31 08:48:09;;;;;;;5.43;2.30;;;16.60;71.90;;;;;;2310903;55;21023;-74
2022/10/31 08:50:36;;;;;;;4.12;2.15;;;16.70;71.90;;;;;;2309129;56;21549;-74
2022/10/31 08:53:04;;;;;;;4.47;2.42;;;16.80;72.00;;;;;;2308686;56;21721;-75
2022/10/31 08:55:33;;;;;;;4.43;2.65;;;16.80;71.90;;;;;;2288270;55;20959;-74
2022/10/31 08:57:59;;;;;;;5.93;2.92;;;16.90;71.90;;;;;;2310874;54;21000;-75
2022/10/31 09:00:26;;;;;;;5.53;2.87;;;17.00;72.00;;;;;;2305989;56;20997;-75
2022/10/31 09:03:14;;;;;;;7.18;4.18;;;17.00;72.00;;;;;;2300029;55;20948;-76
2022/10/31 09:05:40;;;;;;;5.12;3.00;;;17.10;71.90;;;;;;2300586;55;21703;-75
2022/10/31 09:08:06;;;;;;;6.43;3.55;;;17.20;72.20;;;;;;2288094;55;20949;-73
2022/10/31 09:10:35;;;;;;;6.03;2.37;;;17.20;72.20;;;;;;2308434;55;20977;-73
2022/10/31 09:13:06;;;;;;;4.10;2.37;;;17.30;72.20;;;;;;2308382;56;20940;-74
2022/10/31 09:15:44;;;;;;;4.37;2.10;;;17.40;72.10;;;;;;2309547;56;20918;-73
2022/10/31 09:18:11;;;;;;;7.07;2.92;;;17.40;72.00;;;;;;2309436;56;20957;-73
2022/10/31 09:20:38;;;;;;;4.43;2.33;;;17.50;72.20;;;;;;2548193;54;21068;-74
2022/10/31 09:23:08;;;;;;;6.62;2.75;;;17.50;72.10;;;;;;2308931;56;21004;-73
2022/10/31 09:25:35;;;;;;;5.30;2.50;;;17.60;72.00;;;;;;2547981;54;20961;-76
2022/10/31 09:28:02;;;;;;;6.90;2.35;;;17.70;72.00;;;;;;2308213;55;20949;-73
2022/10/31 09:30:29;;;;;;;4.78;2.60;;;17.70;71.90;;;;;;2308978;56;20925;-75
2022/10/31 09:32:56;;;;;;;5.05;2.33;;;17.80;72.00;;;;;;2494961;54;20997;-73
2022/10/31 09:35:23;;;;;;;5.75;2.90;;;17.80;72.00;;;;;;2308807;56;20992;-74
2022/10/31 09:37:56;;;;;;;4.70;2.60;;;17.90;72.10;;;;;;2289094;56;20969;-73
2022/10/31 09:40:31;;;;;;;4.60;2.58;;;17.90;71.90;;;;;;2309806;56;20957;-73
2022/10/31 09:46:02;;;;;;;5.30;2.47;;;18.00;72.10;;;;;;2309244;55;20972;-73
2022/10/31 09:48:52;;;;;;;5.40;1.87;;;18.00;72.00;;;;;;2309653;56;21005;-74
2022/10/31 09:51:30;;;;;;;3.65;2.00;;;18.20;71.90;;;;;;2309594;56;20949;-73
2022/10/31 09:57:33;;;;;;;4.82;1.75;;;18.20;71.80;;;;;;2306242;55;21877;-74
2022/10/31 09:59:59;;;;;;;4.45;1.62;;;18.30;71.80;;;;;;2309256;55;21754;-73
2022/10/31 10:02:41;;;;;;;5.12;2.50;;;18.40;71.80;;;;;;2433891;54;20930;-73
2022/10/31 10:05:26;;;;;;;4.75;2.40;;;18.40;71.60;;;;;;2308741;56;20973;-73
2022/10/31 10:08:02;;;;;;;4.53;2.20;;;18.50;71.70;;;;;;2283095;54;20972;-72
2022/10/31 10:12:37;;;;;;;5.85;2.67;;;18.50;71.70;;;;;;2282551;56;20983;-74
2022/10/31 10:16:41;;;;;;;6.20;2.45;;;18.60;71.30;;;;;;2284392;56;20992;-73
2022/10/31 10:19:54;;;;;;;5.85;2.30;;;18.70;72.10;;;;;;2304668;55;21021;-74
2022/10/31 10:22:51;;;;;;;4.87;2.42;;;18.80;71.70;;;;;;2301990;55;21787;-74
2022/10/31 10:25:39;;;;;;;6.72;2.70;;;18.80;71.70;;;;;;2309081;56;21005;-73
2022/10/31 10:28:25;;;;;;;4.90;2.60;;;18.90;71.90;;;;;;2346576;54;20973;-74
2022/10/31 10:31:14;;;;;;;4.32;2.80;;;18.90;71.90;;;;;;2304231;56;20950;-73
2022/10/31 10:33:50;;;;;;;5.78;3.30;;;19.00;71.90;;;;;;2387535;54;21450;-73
2022/10/31 10:37:48;;;;;;;5.37;3.12;;;19.10;72.30;;;;;;2309725;56;20961;-74
2022/10/31 10:40:18;;;;;;;4.93;2.58;;;19.20;71.60;;;;;;2283890;54;21979;-74
2022/10/31 10:50:01;;;;;;;5.40;2.10;;;19.30;71.20;;;;;;2283528;55;21079;-75
2022/10/31 10:52:52;;;;;;;7.82;2.42;;;19.40;71.80;;;;;;2284874;55;20951;-74
2022/10/31 10:55:28;;;;;;;6.60;2.55;;;19.40;71.10;;;;;;2258305;55;21006;-74
2022/10/31 10:58:06;;;;;;;5.72;2.60;;;19.50;71.40;;;;;;2281497;55;20935;-73
2022/10/31 11:00:46;;;;;;;5.18;2.75;;;19.50;71.40;;;;;;2280667;54;21428;-73
2022/10/31 11:03:13;;;;;;;6.07;2.20;;;19.50;71.40;;;;;;2277928;56;21046;-72
2022/10/31 11:05:50;;;;;;;4.30;2.30;;;19.60;71.60;;;;;;2283084;54;21042;-73
2022/10/31 11:08:35;;;;;;;5.68;2.35;;;19.50;71.30;;;;;;2262840;55;21094;-72
2022/10/31 11:11:03;;;;;;;4.35;2.58;;;19.60;70.90;;;;;;2296077;54;20970;-71
2022/10/31 11:13:30;;;;;;;6.87;3.58;;;19.60;71.30;;;;;;2296812;55;21101;-74
2022/10/31 11:16:25;;;;;;;7.12;2.83;;;19.70;71.20;;;;;;2292229;55;21281;-73
2022/10/31 11:18:54;;;;;;;4.40;2.30;;;19.70;71.10;;;;;;2389598;54;21085;-74
2022/10/31 11:21:30;;;;;;;5.95;2.53;;;19.70;71.10;;;;;;2471863;55;21035;-77
2022/10/31 11:25:24;;;;;;;5.15;2.70;;;19.80;70.90;;;;;;2293046;55;21007;-76
2022/10/31 11:28:04;;;;;;;5.25;2.47;;;19.80;70.30;;;;;;2295922;55;20993;-76
2022/10/31 11:30:30;;;;;;;4.50;2.40;;;19.80;70.40;;;;;;2291421;55;21062;-75
2022/10/31 11:32:57;;;;;;;4.75;2.60;;;19.80;70.90;;;;;;2280058;55;21012;-75
2022/10/31 11:35:25;;;;;;;5.97;2.20;;;19.80;70.80;;;;;;2521137;54;21019;-73
2022/10/31 11:37:53;;;;;;;6.12;2.95;;;19.80;70.70;;;;;;2283777;55;20995;-74
2022/10/31 11:40:21;;;;;;;5.78;2.75;;;19.90;70.80;;;;;;2518419;54;21875;-74
2022/10/31 11:42:47;;;;;;;6.03;2.90;;;19.90;70.70;;;;;;2289544;56;21060;-73
2022/10/31 11:46:15;;;;;;;3.83;2.15;;;19.90;70.50;;;;;;2294205;56;21059;-76
2022/10/31 11:48:46;;;;;;;4.07;2.03;;;19.90;69.80;;;;;;2293874;55;21773;-74
2022/10/31 11:51:27;;;;;;;4.03;2.22;;;19.90;70.30;;;;;;2527283;54;21979;-76
2022/10/31 11:54:02;;;;;;;4.18;2.33;;;19.90;70.30;;;;;;2277591;56;20983;-75
2022/10/31 11:56:37;;;;;;;5.00;2.60;;;19.90;70.30;;;;;;2292740;55;21911;-76
2022/10/31 11:59:05;;;;;;;6.05;2.67;;;20.00;70.60;;;;;;2309345;56;21509;-74
2022/10/31 12:01:32;;;;;;;4.18;2.45;;;20.00;70.60;;;;;;2309803;56;20946;-77
2022/10/31 12:04:11;;;;;;;4.43;2.58;;;19.90;70.50;;;;;;2308871;56;20971;-77
2022/10/31 12:06:41;;;;;;;5.75;2.90;;;20.00;70.30;;;;;;2292354;55;20927;-75
2022/10/31 12:09:40;;;;;;;6.28;3.20;;;20.00;70.50;;;;;;2299506;54;21055;-76
2022/10/31 12:12:44;;;;;;;5.40;3.10;;;20.00;69.90;;;;;;2364228;53;20969;-76
2022/10/31 12:15:29;;;;;;;6.28;2.58;;;20.00;70.10;;;;;;2305646;56;21020;-76
2022/10/31 12:21:06;;;;;;;5.35;2.75;;;20.10;70.40;;;;;;2510136;54;21030;-75
2022/10/31 12:23:52;;;;;;;4.12;2.22;;;20.10;70.70;;;;;;2300745;55;20966;-72
2022/10/31 12:27:56;;;;;;;5.78;2.40;;;20.20;70.60;;;;;;2342488;55;21054;-75
2022/10/31 12:31:03;;;;;;;6.07;2.40;;;20.30;70.80;;;;;;2296934;54;21074;-73
2022/10/31 12:35:05;;;;;;;6.78;2.50;;;20.30;70.90;;;;;;2291696;55;20955;-73
2022/10/31 12:40:41;;;;;;;4.25;2.12;;;20.40;70.80;;;;;;2286743;55;21004;-74
2022/10/31 12:46:08;;;;;;;5.85;1.98;;;20.50;70.80;;;;;;2299891;55;20971;-72
2022/10/31 12:50:12;;;;;;;5.30;2.00;;;20.70;70.80;;;;;;2290127;55;21530;-74
2022/10/31 12:52:57;;;;;;;;;;;20.80;70.60;;;;;;2303908;56;20941;-73
2022/10/31 12:57:07;;;;;;;3.80;2.05;;;20.80;70.70;;;;;;2345150;54;20077;-73
2022/10/31 12:59:40;;;;;;;5.15;2.00;;;20.80;70.30;;;;;;2382710;54;21092;-76
2022/10/31 13:04:45;;;;;;;4.15;2.12;;;20.90;71.00;;;;;;2357470;55;21897;-77
2022/10/31 13:07:22;;;;;;;3.95;2.00;;;20.90;70.30;;;;;;2269833;56;20980;-73
2022/10/31 13:10:00;;;;;;;4.37;2.40;;;20.90;70.60;;;;;;2425802;54;20943;-73
2022/10/31 13:12:27;;;;;;;4.18;2.17;;;20.90;70.50;;;;;;2292339;54;21467;-74
2022/10/31 13:14:59;;;;;;;7.32;2.60;;;20.90;70.70;;;;;;2355807;54;21073;-75
2022/10/31 13:17:43;;;;;;;6.18;2.80;;;21.00;70.60;;;;;;2298276;55;20975;-73
2022/10/31 13:21:14;;;;;;;5.35;2.90;;;21.00;70.40;;;;;;2373948;54;21135;-73
2022/10/31 13:23:40;;;;;;;5.00;2.47;;;21.00;70.40;;;;;;2299645;55;20982;-73
2022/10/31 13:26:47;;;;;;;5.78;2.67;;;21.00;70.60;;;;;;2313874;55;21788;-76
2022/10/31 13:30:20;;;;;;;5.62;2.53;;;21.00;70.30;;;;;;2303515;55;21046;-76
2022/10/31 13:33:00;;;;;;;5.72;3.05;;;21.10;69.70;;;;;;2510930;54;21033;-74
2022/10/31 13:35:52;;;;;;;4.18;2.30;;;21.10;69.90;;;;;;2296835;55;20999;-74
2022/10/31 13:38:41;;;;;;;4.80;2.60;;;21.10;69.80;;;;;;2536795;54;20941;-69
2022/10/31 13:41:58;;;;;;;4.68;2.40;;;21.20;70.20;;;;;;2284030;54;21023;-70
2022/10/31 13:44:40;;;;;;;4.05;2.47;;;21.20;69.60;;;;;;2313312;55;21013;-70
2022/10/31 13:47:37;;;;;;;6.37;2.50;;;21.30;70.10;;;;;;2277760;56;20972;-70
2022/10/31 13:50:26;;;;;;;7.70;2.35;;;21.30;69.30;;;;;;2515951;54;20943;-72
2022/10/31 13:53:02;;;;;;;4.97;2.65;;;21.30;69.10;;;;;;2301238;55;21049;-70
2022/10/31 13:55:43;;;;;;;4.82;2.47;;;21.30;70.00;;;;;;2418497;54;21020;-74
2022/10/31 13:58:23;;;;;;;5.65;2.87;;;21.30;69.30;;;;;;2521121;54;21077;-73
2022/10/31 14:01:18;;;;;;;6.53;3.05;;;21.40;69.20;;;;;;2335188;54;21525;-74
2022/10/31 14:03:46;;;;;;;7.25;2.90;;;21.40;68.80;;;;;;2309385;56;21155;-70
2022/10/31 14:07:44;;;;;;;5.97;2.60;;;21.40;69.50;;;;;;2548137;54;21013;-69